createdAt,value
2019-05-01T00:02:09.682Z,1.95
2019-05-01T00:04:55.600Z,1.90
2019-05-01T00:07:27.605Z,1.93
2019-05-01T00:10:01.674Z,1.65
2019-05-01T00:12:29.589Z,2.63
2019-05-01T00:14:57.255Z,2.37
2019-05-01T00:17:27.624Z,2.07
2019-05-01T00:19:54.383Z,2.83
2019-05-01T00:22:22.206Z,2.93
2019-05-01T00:24:50.061Z,1.97
2019-05-01T00:27:17.781Z,4.07
2019-05-01T00:29:45.478Z,3.13
2019-05-01T00:32:13.148Z,2.37
2019-05-01T00:34:40.800Z,2.43
2019-05-01T00:37:08.493Z,2.13
2019-05-01T00:39:36.151Z,2.87
2019-05-01T00:42:03.876Z,2.13
2019-05-01T00:44:31.521Z,3.27
2019-05-01T00:46:59.231Z,2.03
2019-05-01T00:49:26.929Z,3.57
2019-05-01T00:51:54.579Z,2.63
2019-05-01T00:54:22.363Z,3.13
2019-05-01T00:57:06.561Z,1.47
2019-05-01T00:59:38.509Z,2.23
2019-05-01T01:02:07.910Z,2.43
2019-05-01T01:04:35.593Z,3.00
2019-05-01T01:07:03.376Z,2.30
2019-05-01T01:09:31.002Z,3.10
2019-05-01T01:11:58.703Z,2.53
2019-05-01T01:14:26.575Z,1.20
2019-05-01T01:16:54.285Z,2.50
2019-05-01T01:19:21.927Z,3.00
2019-05-01T01:21:49.664Z,1.97
2019-05-01T01:24:17.405Z,2.33
2019-05-01T01:26:45.402Z,1.77
2019-05-01T01:29:13.172Z,2.80
2019-05-01T01:31:40.938Z,2.53
2019-05-01T01:34:08.699Z,2.63
2019-05-01T01:36:36.466Z,2.53
2019-05-01T01:39:05.865Z,2.23
2019-05-01T01:41:33.902Z,2.87
2019-05-01T01:44:03.134Z,2.13
2019-05-01T01:46:32.368Z,1.87
2019-05-01T01:49:00.474Z,2.60
2019-05-01T01:51:28.179Z,1.77
2019-05-01T01:53:57.379Z,1.73
2019-05-01T01:56:25.072Z,2.73
2019-05-01T01:58:53.124Z,2.40
2019-05-01T02:01:37.799Z,2.27
2019-05-01T02:04:09.979Z,2.97
2019-05-01T02:06:37.728Z,2.83
2019-05-01T02:09:06.508Z,2.63
2019-05-01T02:11:34.355Z,4.03
2019-05-01T02:14:02.146Z,2.33
2019-05-01T02:16:29.790Z,3.53
2019-05-01T02:18:57.488Z,3.07
2019-05-01T02:21:25.229Z,3.40
2019-05-01T02:23:52.890Z,3.43
2019-05-01T02:26:22.180Z,3.23
2019-05-01T02:28:52.277Z,4.07
2019-05-01T02:31:27.852Z,2.50
2019-05-01T02:33:52.852Z,3.83
2019-05-01T02:36:21.359Z,4.37
2019-05-01T02:38:49.815Z,3.73
2019-05-01T02:41:18.856Z,4.13
2019-05-01T02:43:48.025Z,3.17
2019-05-01T02:46:16.925Z,3.23
2019-05-01T02:48:46.208Z,4.07
2019-05-01T02:51:14.197Z,3.07
2019-05-01T02:53:43.502Z,3.83
2019-05-01T02:56:26.829Z,2.53
2019-05-01T02:58:56.020Z,2.80
2019-05-01T03:01:24.310Z,3.73
2019-05-01T03:03:52.886Z,3.60
2019-05-01T03:06:20.858Z,3.80
2019-05-01T03:08:48.831Z,3.70
2019-05-01T03:11:16.593Z,3.00
2019-05-01T03:13:46.314Z,4.17
2019-05-01T03:16:14.899Z,4.67
2019-05-01T03:18:56.155Z,4.37
2019-05-01T03:21:25.586Z,3.37
2019-05-01T03:23:55.000Z,2.93
2019-05-01T03:26:22.732Z,3.80
2019-05-01T03:28:50.419Z,3.63
2019-05-01T03:31:18.414Z,3.47
2019-05-01T03:33:46.252Z,3.47
2019-05-01T03:36:14.233Z,4.17
2019-05-01T03:38:42.605Z,2.50
2019-05-01T03:41:10.351Z,4.13
2019-05-01T03:43:38.142Z,2.90
2019-05-01T03:46:05.899Z,2.63
2019-05-01T03:48:33.615Z,3.20
2019-05-01T03:51:01.803Z,3.00
2019-05-01T03:53:29.609Z,4.37
2019-05-01T03:55:57.474Z,3.77
2019-05-01T03:58:25.243Z,3.90
2019-05-01T04:00:57.522Z,5.20
2019-05-01T04:03:30.203Z,4.30
2019-05-01T04:05:57.966Z,6.07
2019-05-01T04:08:25.724Z,2.53
2019-05-01T04:10:54.396Z,4.07
2019-05-01T04:13:22.160Z,4.53
2019-05-01T04:15:50.036Z,4.20
2019-05-01T04:18:18.128Z,7.17
2019-05-01T04:20:45.994Z,6.07
2019-05-01T04:23:14.573Z,2.43
2019-05-01T04:25:42.750Z,3.50
2019-05-01T04:28:28.619Z,4.00
2019-05-01T04:30:57.941Z,2.27
2019-05-01T04:33:26.222Z,2.20
2019-05-01T04:35:58.505Z,2.17
2019-05-01T04:38:26.770Z,2.60
2019-05-01T04:40:54.554Z,2.43
2019-05-01T04:43:22.301Z,1.70
2019-05-01T04:45:50.064Z,3.60
2019-05-01T04:48:17.771Z,2.27
2019-05-01T04:50:45.652Z,2.60
2019-05-01T04:53:13.381Z,2.83
2019-05-01T04:55:41.004Z,3.40
2019-05-01T04:58:08.918Z,4.57
2019-05-01T05:00:36.624Z,4.37
2019-05-01T05:03:06.162Z,3.70
2019-05-01T05:05:34.050Z,2.90
2019-05-01T05:08:02.372Z,1.50
2019-05-01T05:10:30.484Z,2.00
2019-05-01T05:12:59.807Z,2.10
2019-05-01T05:15:32.270Z,2.30
2019-05-01T05:18:00.143Z,2.40
2019-05-01T05:20:28.118Z,3.57
2019-05-01T05:22:55.982Z,3.43
2019-05-01T05:25:23.828Z,2.87
2019-05-01T05:27:52.515Z,3.07
2019-05-01T05:30:20.692Z,2.63
2019-05-01T05:32:49.666Z,1.90
2019-05-01T05:35:18.801Z,2.97
2019-05-01T05:37:56.841Z,2.43
2019-05-01T05:40:26.216Z,2.17
2019-05-01T05:42:53.959Z,1.67
2019-05-01T05:45:21.933Z,1.63
2019-05-01T05:47:49.730Z,1.77
2019-05-01T05:50:19.123Z,2.10
2019-05-01T05:52:52.408Z,1.97
2019-05-01T05:55:31.870Z,2.10
2019-05-01T05:58:02.762Z,2.80
2019-05-01T06:00:49.905Z,2.33
2019-05-01T06:03:36.016Z,1.77
2019-05-01T06:06:22.317Z,1.97
2019-05-01T06:08:51.491Z,1.73
2019-05-01T06:11:29.638Z,2.83
2019-05-01T06:13:59.539Z,2.33
2019-05-01T06:16:29.231Z,2.03
2019-05-01T06:19:01.556Z,2.70
2019-05-01T06:21:34.621Z,1.70
2019-05-01T06:24:17.023Z,1.30
2019-05-01T06:26:44.788Z,1.27
2019-05-01T06:29:12.574Z,1.63
2019-05-01T06:31:40.321Z,2.27
2019-05-01T06:34:08.183Z,1.60
2019-05-01T06:36:35.957Z,2.37
2019-05-01T06:39:06.808Z,2.17
2019-05-01T06:41:42.325Z,1.30
2019-05-01T06:44:16.348Z,2.37
2019-05-01T06:46:45.544Z,2.00
2019-05-01T06:49:24.101Z,2.00
2019-05-01T06:51:53.158Z,1.17
2019-05-01T06:54:21.748Z,2.13
2019-05-01T06:56:50.345Z,1.00
2019-05-01T06:59:18.425Z,1.40
2019-05-01T07:01:46.891Z,1.23
2019-05-01T07:04:14.763Z,1.23
2019-05-01T07:06:42.930Z,1.37
2019-05-01T07:09:11.780Z,1.23
2019-05-01T07:11:42.421Z,1.80
2019-05-01T07:14:11.085Z,2.20
2019-05-01T07:16:39.848Z,1.23
2019-05-01T07:19:08.440Z,1.47
2019-05-01T07:21:36.544Z,1.87
2019-05-01T07:24:04.877Z,1.13
2019-05-01T07:26:32.636Z,2.03
2019-05-01T07:29:06.111Z,1.70
2019-05-01T07:31:33.808Z,1.13
2019-05-01T07:34:01.452Z,1.67
2019-05-01T07:36:29.211Z,0.97
2019-05-01T07:38:57.196Z,0.57
2019-05-01T07:41:25.075Z,2.03
2019-05-01T07:44:10.738Z,1.57
2019-05-01T07:46:53.469Z,1.93
2019-05-01T07:49:19.601Z,2.60
2019-05-01T07:51:51.401Z,0.80
2019-05-01T07:54:19.380Z,1.20
2019-05-01T07:56:47.302Z,1.50
2019-05-01T07:59:15.023Z,1.73
2019-05-01T08:01:49.846Z,0.73
2019-05-01T08:04:18.500Z,0.97
2019-05-01T08:06:46.027Z,1.53
2019-05-01T08:09:15.239Z,1.40
2019-05-01T08:11:44.213Z,0.87
2019-05-01T08:14:16.625Z,0.93
2019-05-01T08:16:42.560Z,0.60
2019-05-01T08:19:25.362Z,1.27
2019-05-01T08:21:57.064Z,0.90
2019-05-01T08:24:24.699Z,0.73
2019-05-01T08:26:52.665Z,0.50
2019-05-01T08:29:42.035Z,0.53
2019-05-01T08:32:09.125Z,1.00
2019-05-01T08:34:48.513Z,0.60
2019-05-01T08:37:07.877Z,1.07
2019-05-01T08:39:39.545Z,0.90
2019-05-01T08:42:07.060Z,0.78
2019-05-01T08:44:36.610Z,0.77
2019-05-01T08:47:11.770Z,1.43
2019-05-01T08:49:42.201Z,1.00
2019-05-01T08:52:13.614Z,1.60
2019-05-01T08:54:40.166Z,0.90
2019-05-01T08:57:08.100Z,1.30
2019-05-01T08:59:35.860Z,0.60
2019-05-01T09:02:09.383Z,1.10
2019-05-01T09:04:32.839Z,1.23
2019-05-01T09:07:00.669Z,0.73
2019-05-01T09:09:28.401Z,0.60
2019-05-01T09:11:56.099Z,0.83
2019-05-01T09:14:24.055Z,1.47
2019-05-01T09:16:52.591Z,1.27
2019-05-01T09:19:20.376Z,1.20
2019-05-01T09:21:48.112Z,0.60
2019-05-01T09:24:15.779Z,0.80
2019-05-01T09:26:50.227Z,0.60
2019-05-01T09:29:31.212Z,0.87
2019-05-01T09:31:58.870Z,1.83
2019-05-01T09:34:26.539Z,0.80
2019-05-01T09:36:54.303Z,1.13
2019-05-01T09:39:22.777Z,1.00
2019-05-01T09:41:50.578Z,0.90
2019-05-01T09:44:18.419Z,0.97
2019-05-01T09:46:46.183Z,1.60
2019-05-01T09:49:14.235Z,1.03
2019-05-01T09:51:49.228Z,0.60
2019-05-01T09:54:27.484Z,0.80
2019-05-01T09:56:55.244Z,0.77
2019-05-01T09:59:23.032Z,1.13
2019-05-01T10:01:50.693Z,0.73
2019-05-01T10:04:18.420Z,1.00
2019-05-01T10:06:47.664Z,0.97
2019-05-01T10:09:16.865Z,1.33
2019-05-01T10:11:44.881Z,1.17
2019-05-01T10:14:12.536Z,0.70
2019-05-01T10:16:40.261Z,1.40
2019-05-01T10:19:07.982Z,0.90
2019-05-01T10:21:35.629Z,1.30
2019-05-01T10:24:03.465Z,1.23
2019-05-01T10:26:32.686Z,1.03
2019-05-01T10:29:01.966Z,0.97
2019-05-01T10:31:34.211Z,1.10
2019-05-01T10:34:09.259Z,1.17
2019-05-01T10:36:38.592Z,0.97
2019-05-01T10:39:07.372Z,1.10
2019-05-01T10:41:35.144Z,0.93
2019-05-01T10:44:02.991Z,0.60
2019-05-01T10:46:30.749Z,1.37
2019-05-01T10:48:58.411Z,0.93
2019-05-01T10:51:27.977Z,0.37
2019-05-01T10:53:57.268Z,1.10
2019-05-01T10:56:24.805Z,0.87
2019-05-01T10:58:52.566Z,0.60
2019-05-01T11:01:28.212Z,1.40
2019-05-01T11:03:56.088Z,0.70
2019-05-01T11:06:23.852Z,1.57
2019-05-01T11:08:51.710Z,1.33
2019-05-01T11:11:19.685Z,0.87
2019-05-01T11:13:47.327Z,1.10
2019-05-01T11:16:15.217Z,0.90
2019-05-01T11:18:42.868Z,0.90
2019-05-01T11:21:10.632Z,0.80
2019-05-01T11:23:38.418Z,1.20
2019-05-01T11:26:06.288Z,0.70
2019-05-01T11:28:34.037Z,0.60
2019-05-01T11:31:01.909Z,1.23
2019-05-01T11:33:31.388Z,1.23
2019-05-01T11:36:09.628Z,0.83
2019-05-01T11:38:38.019Z,0.93
2019-05-01T11:41:13.254Z,1.33
2019-05-01T11:43:41.016Z,1.00
2019-05-01T11:46:08.889Z,1.57
2019-05-01T11:48:36.575Z,1.10
2019-05-01T11:51:04.534Z,1.37
2019-05-01T11:53:32.268Z,0.90
2019-05-01T11:56:00.065Z,1.27
2019-05-01T11:58:27.808Z,1.43
2019-05-01T12:00:57.225Z,1.00
2019-05-01T12:03:24.981Z,1.10
2019-05-01T12:05:52.752Z,1.47
2019-05-01T12:08:20.399Z,0.83
2019-05-01T12:10:48.078Z,0.93
2019-05-01T12:13:17.596Z,0.93
2019-05-01T12:15:46.777Z,0.90
2019-05-01T12:18:14.449Z,1.43
2019-05-01T12:20:42.315Z,1.10
2019-05-01T12:23:10.189Z,0.60
2019-05-01T12:25:37.811Z,1.17
2019-05-01T12:28:05.546Z,0.63
2019-05-01T12:30:33.491Z,0.57
2019-05-01T12:33:01.249Z,1.00
2019-05-01T12:35:28.896Z,1.37
2019-05-01T12:37:58.321Z,0.70
2019-05-01T12:40:26.189Z,0.93
2019-05-01T12:42:54.057Z,1.00
2019-05-01T12:45:21.800Z,1.20
2019-05-01T12:47:54.178Z,0.73
2019-05-01T12:50:22.149Z,1.40
2019-05-01T12:53:03.535Z,0.70
2019-05-01T12:55:35.922Z,0.87
2019-05-01T12:58:03.665Z,1.63
2019-05-01T13:00:41.983Z,1.37
2019-05-01T13:03:09.956Z,0.77
2019-05-01T13:05:37.719Z,2.20
2019-05-01T13:08:05.360Z,1.10
2019-05-01T13:10:33.186Z,0.60
2019-05-01T13:13:01.039Z,1.13
2019-05-01T13:15:28.796Z,1.40
2019-05-01T13:17:56.567Z,1.27
2019-05-01T13:20:24.438Z,1.27
2019-05-01T13:22:52.304Z,1.17
2019-05-01T13:25:19.933Z,1.63
2019-05-01T13:28:01.455Z,0.93
2019-05-01T13:30:40.179Z,1.20
2019-05-01T13:33:08.051Z,0.53
2019-05-01T13:35:35.808Z,1.07
2019-05-01T13:38:03.686Z,2.67
2019-05-01T13:40:32.066Z,0.90
2019-05-01T13:42:59.724Z,0.73
2019-05-01T13:45:27.376Z,1.73
2019-05-01T13:47:55.039Z,0.90
2019-05-01T13:50:22.707Z,0.77
2019-05-01T13:52:50.343Z,0.63
2019-05-01T13:55:18.350Z,0.90
2019-05-01T13:57:46.112Z,0.90
2019-05-01T14:00:13.982Z,1.63
2019-05-01T14:02:41.611Z,0.63
2019-05-01T14:05:09.718Z,1.20
2019-05-01T14:07:37.485Z,1.10
2019-05-01T14:10:05.456Z,0.80
2019-05-01T14:12:33.141Z,1.40
2019-05-01T14:15:00.857Z,1.20
2019-05-01T14:17:28.503Z,1.20
2019-05-01T14:20:03.796Z,1.03
2019-05-01T14:22:33.201Z,0.90
2019-05-01T14:25:02.605Z,1.17
2019-05-01T14:27:30.272Z,0.80
2019-05-01T14:29:58.029Z,0.87
2019-05-01T14:32:26.106Z,0.67
2019-05-01T14:34:53.872Z,1.13
2019-05-01T14:37:29.373Z,0.93
2019-05-01T14:39:51.028Z,1.57
2019-05-01T14:42:18.659Z,1.87
2019-05-01T14:44:46.358Z,1.57
2019-05-01T14:47:14.011Z,1.27
2019-05-01T14:49:41.901Z,1.33
2019-05-01T14:52:09.532Z,0.97
2019-05-01T14:54:37.412Z,1.20
2019-05-01T14:57:05.200Z,1.00
2019-05-01T14:59:33.383Z,1.30
2019-05-01T15:02:01.237Z,1.90
2019-05-01T15:04:29.017Z,1.07
2019-05-01T15:06:56.672Z,1.10
2019-05-01T15:09:24.331Z,1.30
2019-05-01T15:11:51.973Z,1.10
2019-05-01T15:14:23.943Z,1.13
2019-05-01T15:16:53.370Z,1.10
2019-05-01T15:19:22.668Z,1.23
2019-05-01T15:21:50.645Z,0.47
2019-05-01T15:24:18.611Z,0.97
2019-05-01T15:26:47.205Z,1.23
2019-05-01T15:29:15.076Z,0.80
2019-05-01T15:31:42.831Z,1.57
2019-05-01T15:34:10.475Z,1.10
2019-05-01T15:36:38.353Z,0.83
2019-05-01T15:39:07.612Z,1.00
2019-05-01T15:41:53.485Z,1.47
2019-05-01T15:44:32.178Z,1.47
2019-05-01T15:46:59.859Z,2.20
2019-05-01T15:49:27.702Z,1.90
2019-05-01T15:51:56.539Z,1.03
2019-05-01T15:54:24.468Z,0.70
2019-05-01T15:56:52.138Z,0.97
2019-05-01T15:59:19.955Z,1.50
2019-05-01T16:01:47.631Z,1.37
2019-05-01T16:04:15.320Z,1.47
2019-05-01T16:06:43.195Z,1.03
2019-05-01T16:09:11.168Z,0.83
2019-05-01T16:11:57.261Z,2.17
2019-05-01T16:14:25.130Z,2.53
2019-05-01T16:16:52.899Z,1.17
2019-05-01T16:19:20.585Z,2.13
2019-05-01T16:21:48.250Z,1.63
2019-05-01T16:24:16.181Z,0.90
2019-05-01T16:26:43.955Z,1.57
2019-05-01T16:29:11.823Z,1.53
2019-05-01T16:31:39.695Z,1.57
2019-05-01T16:34:07.721Z,0.53
2019-05-01T16:36:37.158Z,0.73
2019-05-01T16:39:07.565Z,0.60
2019-05-01T16:41:35.354Z,1.33
2019-05-01T16:44:03.120Z,0.80
2019-05-01T16:46:30.910Z,0.87
2019-05-01T16:48:58.660Z,1.07
2019-05-01T16:51:26.429Z,1.87
2019-05-01T16:53:54.192Z,4.53
2019-05-01T16:56:21.853Z,1.50
2019-05-01T16:58:49.621Z,1.93
2019-05-01T17:01:34.964Z,0.60
2019-05-01T17:04:04.295Z,1.47
2019-05-01T17:06:42.094Z,2.50
2019-05-01T17:09:28.084Z,2.83
2019-05-01T17:11:55.749Z,3.13
2019-05-01T17:14:23.477Z,3.50
2019-05-01T17:16:51.300Z,3.70
2019-05-01T17:19:18.990Z,3.77
2019-05-01T17:21:46.673Z,4.93
2019-05-01T17:24:14.380Z,5.20
2019-05-01T17:26:42.097Z,4.63
2019-05-01T17:29:09.762Z,4.20
2019-05-01T17:31:37.417Z,4.83
2019-05-01T17:34:05.925Z,5.45
2019-05-01T17:36:33.599Z,5.73
2019-05-01T17:39:01.407Z,5.77
2019-05-01T17:41:29.182Z,6.33
2019-05-01T17:43:56.936Z,6.57
2019-05-01T17:46:24.584Z,5.70
2019-05-01T17:48:52.453Z,4.47
2019-05-01T17:51:20.220Z,6.03
2019-05-01T17:53:47.980Z,6.83
2019-05-01T17:56:19.588Z,6.73
2019-05-01T17:58:45.257Z,4.63
2019-05-01T18:01:17.341Z,4.10
2019-05-01T18:03:46.734Z,2.00
2019-05-01T18:06:16.147Z,3.97
2019-05-01T18:08:43.901Z,3.13
2019-05-01T18:11:14.320Z,2.73
2019-05-01T18:13:41.171Z,2.27
2019-05-01T18:16:08.878Z,2.13
2019-05-01T18:18:36.709Z,4.83
2019-05-01T18:21:04.515Z,3.93
2019-05-01T18:23:36.746Z,2.93
2019-05-01T18:26:08.786Z,1.10
2019-05-01T18:28:37.921Z,2.70
2019-05-01T18:31:07.310Z,1.80
2019-05-01T18:33:35.076Z,1.07
2019-05-01T18:36:02.944Z,1.47
2019-05-01T18:38:47.669Z,0.90
2019-05-01T18:41:24.028Z,1.30
2019-05-01T18:43:51.742Z,1.20
2019-05-01T18:46:19.511Z,1.53
2019-05-01T18:48:47.380Z,0.83
2019-05-01T18:51:16.440Z,0.50
2019-05-01T18:53:44.357Z,1.27
2019-05-01T18:56:12.105Z,1.00
2019-05-01T18:58:39.871Z,0.77
2019-05-01T19:01:09.531Z,0.90
2019-05-01T19:03:41.718Z,1.43
2019-05-01T19:06:06.450Z,1.17
2019-05-01T19:08:34.318Z,0.90
2019-05-01T19:11:12.385Z,0.83
2019-05-01T19:13:32.023Z,1.17
2019-05-01T19:16:03.348Z,1.13
2019-05-01T19:18:29.071Z,1.80
2019-05-01T19:20:59.740Z,1.07
2019-05-01T19:23:27.761Z,0.80
2019-05-01T19:25:56.454Z,0.50
2019-05-01T19:28:25.459Z,0.50
2019-05-01T19:30:53.240Z,0.80
2019-05-01T19:33:20.910Z,0.50
2019-05-01T19:35:48.574Z,0.70
2019-05-01T19:38:16.499Z,0.70
2019-05-01T19:40:44.300Z,1.30
2019-05-01T19:43:12.062Z,0.97
2019-05-01T19:45:39.933Z,0.73
2019-05-01T19:48:07.789Z,0.70
2019-05-01T19:50:39.409Z,0.50
2019-05-01T19:53:04.854Z,1.73
2019-05-01T19:55:32.499Z,0.60
2019-05-01T19:58:00.386Z,1.57
2019-05-01T20:00:46.360Z,1.03
2019-05-01T20:03:14.105Z,2.30
2019-05-01T20:05:41.908Z,1.60
2019-05-01T20:08:09.782Z,1.17
2019-05-01T20:10:37.645Z,2.53
2019-05-01T20:13:07.141Z,2.47
2019-05-01T20:15:34.923Z,2.53
2019-05-01T20:18:02.671Z,1.60
2019-05-01T20:20:30.659Z,1.37
2019-05-01T20:22:58.521Z,0.50
2019-05-01T20:25:26.282Z,1.43
2019-05-01T20:27:54.087Z,1.27
2019-05-01T20:30:21.822Z,0.40
2019-05-01T20:32:49.467Z,0.77
2019-05-01T20:35:17.245Z,0.67
2019-05-01T20:37:45.017Z,1.23
2019-05-01T20:40:13.105Z,1.07
2019-05-01T20:42:40.848Z,0.70
2019-05-01T20:45:17.717Z,0.83
2019-05-01T20:47:45.266Z,1.37
2019-05-01T20:50:07.634Z,1.37
2019-05-01T20:52:35.510Z,1.10
2019-05-01T20:55:03.236Z,0.87
2019-05-01T20:57:35.554Z,0.47
2019-05-01T21:00:04.224Z,0.60
2019-05-01T21:02:32.102Z,0.67
2019-05-01T21:05:17.793Z,0.77
2019-05-01T21:07:47.021Z,0.77
2019-05-01T21:10:24.638Z,0.40
2019-05-01T21:12:44.261Z,1.40
2019-05-01T21:15:12.347Z,2.07
2019-05-01T21:17:44.180Z,1.40
2019-05-01T21:20:09.399Z,2.27
2019-05-01T21:22:37.117Z,1.03
2019-05-01T21:25:05.101Z,1.80
2019-05-01T21:27:33.455Z,1.53
2019-05-01T21:30:03.732Z,2.63
2019-05-01T21:32:30.999Z,2.30
2019-05-01T21:34:58.768Z,1.83
2019-05-01T21:37:26.764Z,1.37
2019-05-01T21:39:54.497Z,1.93
2019-05-01T21:42:24.544Z,1.50
2019-05-01T21:44:53.261Z,2.63
2019-05-01T21:47:21.169Z,2.17
2019-05-01T21:49:48.897Z,3.03
2019-05-01T21:52:17.906Z,2.67
2019-05-01T21:54:50.243Z,2.27
2019-05-01T21:57:17.418Z,3.10
2019-05-01T21:59:48.046Z,2.90
2019-05-01T22:02:14.333Z,1.80
2019-05-01T22:04:42.191Z,1.50
2019-05-01T22:07:10.308Z,1.90
2019-05-01T22:09:39.108Z,1.77
2019-05-01T22:12:08.204Z,1.20
2019-05-01T22:14:40.470Z,3.00
2019-05-01T22:17:09.930Z,1.27
2019-05-01T22:19:37.798Z,3.57
2019-05-01T22:22:13.039Z,1.77
2019-05-01T22:24:42.443Z,2.33
2019-05-01T22:27:14.725Z,1.90
2019-05-01T22:29:44.029Z,2.50
2019-05-01T22:32:27.731Z,2.17
2019-05-01T22:34:56.645Z,2.33
2019-05-01T22:37:24.717Z,1.40
2019-05-01T22:39:57.097Z,1.90
2019-05-01T22:42:24.863Z,2.73
2019-05-01T22:44:52.624Z,3.77
2019-05-01T22:47:20.708Z,1.87
2019-05-01T22:49:48.481Z,4.17
2019-05-01T22:52:16.215Z,5.97
2019-05-01T22:54:45.004Z,4.77
2019-05-01T22:57:13.567Z,3.30
2019-05-01T22:59:41.353Z,4.00
2019-05-01T23:02:10.682Z,2.50
2019-05-01T23:04:38.524Z,2.30
2019-05-01T23:07:06.414Z,2.47
2019-05-01T23:09:34.176Z,2.53
2019-05-01T23:12:01.933Z,3.10
2019-05-01T23:14:29.754Z,2.80
2019-05-01T23:17:14.668Z,1.57
2019-05-01T23:19:42.359Z,2.40
2019-05-01T23:22:10.111Z,2.03
2019-05-01T23:24:37.868Z,2.83
2019-05-01T23:27:05.644Z,3.40
2019-05-01T23:29:33.283Z,3.53
2019-05-01T23:32:01.169Z,3.97
2019-05-01T23:34:28.940Z,2.37
2019-05-01T23:36:56.910Z,3.07
2019-05-01T23:39:24.564Z,2.60
2019-05-01T23:41:52.437Z,4.00
2019-05-01T23:44:20.154Z,2.07
2019-05-01T23:46:47.865Z,3.23
2019-05-01T23:49:15.629Z,3.43
2019-05-01T23:51:43.420Z,2.37
2019-05-01T23:54:11.150Z,2.30
2019-05-01T23:56:38.931Z,2.90
2019-05-01T23:59:06.803Z,3.23
